createdAt,value
2018-05-14T00:02:04.956Z,1.00
2018-05-14T00:04:34.424Z,1.00
2018-05-14T00:07:04.482Z,1.00
2018-05-14T00:09:34.693Z,1.00
2018-05-14T00:12:05.305Z,1.00
2018-05-14T00:14:38.270Z,1.00
2018-05-14T00:17:09.242Z,1.00
2018-05-14T00:19:39.768Z,1.00
2018-05-14T00:22:10.358Z,1.00
2018-05-14T00:24:40.339Z,1.00
2018-05-14T00:27:12.415Z,1.00
2018-05-14T00:29:45.490Z,1.00
2018-05-14T00:32:15.492Z,1.00
2018-05-14T00:34:48.318Z,1.00
2018-05-14T00:37:20.495Z,1.00
2018-05-14T00:39:52.252Z,1.00
2018-05-14T00:42:21.908Z,1.00
2018-05-14T00:44:54.540Z,1.00
2018-05-14T00:47:24.396Z,1.00
2018-05-14T00:49:57.050Z,1.00
2018-05-14T00:52:29.056Z,1.00
2018-05-14T00:55:10.076Z,1.00
2018-05-14T00:57:40.203Z,1.00
2018-05-14T01:00:09.850Z,1.00
2018-05-14T01:02:42.309Z,1.00
2018-05-14T01:05:14.285Z,1.00
2018-05-14T01:07:46.793Z,1.00
2018-05-14T01:10:18.592Z,1.00
2018-05-14T01:12:50.655Z,1.00
2018-05-14T01:15:20.045Z,1.00
2018-05-14T01:17:50.510Z,1.00
2018-05-14T01:20:20.900Z,1.00
2018-05-14T01:22:52.610Z,1.00
2018-05-14T01:25:24.682Z,1.00
2018-05-14T01:27:54.304Z,1.00
2018-05-14T01:30:25.301Z,1.00
2018-05-14T01:32:57.962Z,1.00
2018-05-14T01:35:28.273Z,1.00
2018-05-14T01:37:57.828Z,1.00
2018-05-14T01:40:29.710Z,1.00
2018-05-14T01:43:01.322Z,1.00
2018-05-14T01:45:31.561Z,1.00
2018-05-14T01:48:02.375Z,1.00
2018-05-14T01:50:32.616Z,1.00
2018-05-14T01:53:05.721Z,1.00
2018-05-14T01:55:36.360Z,1.00
2018-05-14T01:58:05.970Z,1.00
2018-05-14T02:00:37.535Z,1.00
2018-05-14T02:03:07.332Z,1.00
2018-05-14T02:05:39.273Z,1.00
2018-05-14T02:08:11.496Z,1.00
2018-05-14T02:10:44.345Z,1.00
2018-05-14T02:13:16.208Z,1.00
2018-05-14T02:15:47.025Z,1.00
2018-05-14T02:18:18.972Z,1.00
2018-05-14T02:20:51.867Z,1.00
2018-05-14T02:23:23.604Z,1.00
2018-05-14T02:25:55.277Z,1.00
2018-05-14T02:28:27.109Z,1.00
2018-05-14T02:31:00.480Z,1.00
2018-05-14T02:33:30.204Z,1.00
2018-05-14T02:35:59.631Z,1.00
2018-05-14T02:38:31.267Z,1.00
2018-05-14T02:41:01.296Z,1.00
2018-05-14T02:43:33.933Z,1.00
2018-05-14T02:46:05.644Z,1.00
2018-05-14T02:48:38.557Z,1.00
2018-05-14T02:51:10.453Z,1.00
2018-05-14T02:53:42.175Z,1.00
2018-05-14T02:56:11.754Z,1.00
2018-05-14T02:58:42.279Z,1.00
2018-05-14T03:01:14.861Z,1.00
2018-05-14T03:03:45.728Z,1.00
2018-05-14T03:06:20.020Z,1.00
2018-05-14T03:08:52.490Z,1.00
2018-05-14T03:11:25.070Z,1.00
2018-05-14T03:13:56.881Z,1.00
2018-05-14T03:16:28.882Z,1.00
2018-05-14T03:18:59.234Z,1.00
2018-05-14T03:21:28.872Z,1.00
2018-05-14T03:24:00.805Z,1.00
2018-05-14T03:26:30.914Z,1.00
2018-05-14T03:29:03.898Z,1.00
2018-05-14T03:31:35.035Z,1.00
2018-05-14T03:34:04.879Z,1.00
2018-05-14T03:36:44.120Z,1.00
2018-05-14T03:39:14.103Z,1.00
2018-05-14T03:41:44.904Z,1.00
2018-05-14T03:44:15.838Z,1.00
2018-05-14T03:46:47.611Z,1.00
2018-05-14T03:49:20.153Z,1.00
2018-05-14T03:51:50.184Z,1.00
2018-05-14T03:54:19.119Z,1.00
2018-05-14T03:56:57.468Z,1.00
2018-05-14T03:59:38.379Z,1.00
2018-05-14T04:02:22.700Z,1.00
2018-05-14T04:05:03.594Z,1.00
2018-05-14T04:07:35.634Z,1.00
2018-05-14T04:10:05.361Z,1.00
2018-05-14T04:12:36.137Z,1.00
2018-05-14T04:15:08.583Z,1.00
2018-05-14T04:17:40.463Z,1.00
2018-05-14T04:20:12.998Z,1.00
2018-05-14T04:22:43.739Z,1.00
2018-05-14T04:25:13.385Z,1.00
2018-05-14T04:27:43.831Z,1.00
2018-05-14T04:30:14.551Z,1.00
2018-05-14T04:32:46.940Z,1.00
2018-05-14T04:35:17.393Z,1.00
2018-05-14T04:37:48.191Z,1.00
2018-05-14T04:40:21.321Z,1.00
2018-05-14T04:42:53.147Z,1.00
2018-05-14T04:45:24.880Z,1.00
2018-05-14T04:47:54.605Z,1.00
2018-05-14T04:50:27.291Z,1.00
2018-05-14T04:52:59.907Z,1.00
2018-05-14T04:55:30.727Z,1.00
2018-05-14T04:58:02.784Z,1.00
2018-05-14T05:00:34.478Z,1.00
2018-05-14T05:03:04.597Z,1.00
2018-05-14T05:05:36.872Z,1.00
2018-05-14T05:08:07.912Z,1.00
2018-05-14T05:10:39.654Z,1.00
2018-05-14T05:13:09.368Z,1.00
2018-05-14T05:15:41.159Z,1.00
2018-05-14T05:18:13.848Z,1.00
2018-05-14T05:20:46.426Z,1.00
2018-05-14T05:23:18.774Z,1.00
2018-05-14T05:25:48.374Z,1.00
2018-05-14T05:28:19.069Z,1.00
2018-05-14T05:30:51.547Z,1.00
2018-05-14T05:33:21.022Z,1.00
2018-05-14T05:35:53.694Z,1.00
2018-05-14T05:38:27.373Z,1.00
2018-05-14T05:40:57.572Z,1.00
2018-05-14T05:43:29.882Z,1.00
2018-05-14T05:46:01.082Z,1.00
2018-05-14T05:48:38.678Z,1.00
2018-05-14T05:51:10.977Z,1.00
2018-05-14T05:53:45.027Z,1.00
2018-05-14T05:56:15.103Z,1.00
2018-05-14T05:58:52.517Z,1.00
2018-05-14T06:01:36.528Z,1.00
2018-05-14T06:04:16.067Z,1.00
2018-05-14T06:06:53.281Z,1.00
2018-05-14T06:09:23.430Z,1.00
2018-05-14T06:12:01.218Z,1.00
2018-05-14T06:14:31.470Z,1.00
2018-05-14T06:17:01.328Z,1.00
2018-05-14T06:19:31.891Z,1.00
2018-05-14T06:22:03.026Z,1.00
2018-05-14T06:24:40.260Z,1.00
2018-05-14T06:27:17.961Z,1.00
2018-05-14T06:29:49.850Z,1.00
2018-05-14T06:32:21.927Z,1.00
2018-05-14T06:34:51.846Z,1.00
2018-05-14T06:37:22.868Z,1.00
2018-05-14T06:40:01.318Z,1.00
2018-05-14T06:42:34.047Z,1.00
2018-05-14T06:45:12.898Z,1.00
2018-05-14T06:47:42.252Z,1.00
2018-05-14T06:50:14.913Z,1.00
2018-05-14T06:52:44.863Z,1.00
2018-05-14T06:55:16.442Z,1.00
2018-05-14T06:57:46.077Z,1.00
2018-05-14T07:00:15.866Z,1.00
2018-05-14T07:02:45.836Z,1.00
2018-05-14T07:05:17.872Z,1.00
2018-05-14T07:07:50.055Z,1.00
2018-05-14T07:10:19.933Z,1.00
2018-05-14T07:12:52.941Z,1.00
2018-05-14T07:15:24.096Z,1.00
2018-05-14T07:17:56.406Z,1.00
2018-05-14T07:20:27.301Z,1.00
2018-05-14T07:22:59.661Z,1.00
2018-05-14T07:25:31.941Z,1.00
2018-05-14T07:28:02.442Z,1.00
2018-05-14T07:30:34.501Z,1.00
2018-05-14T07:33:18.484Z,1.00
2018-05-14T07:35:51.633Z,1.00
2018-05-14T07:38:22.147Z,1.00
2018-05-14T07:40:53.491Z,1.00
2018-05-14T07:43:24.363Z,1.00
2018-05-14T07:45:57.656Z,1.00
2018-05-14T07:48:27.650Z,1.00
2018-05-14T07:50:57.658Z,1.00
2018-05-14T07:53:28.286Z,1.00
2018-05-14T07:56:00.007Z,1.00
2018-05-14T07:58:30.062Z,1.00
2018-05-14T08:01:00.999Z,1.00
2018-05-14T08:03:32.868Z,1.00
2018-05-14T08:06:04.136Z,1.00
2018-05-14T08:08:34.137Z,1.00
2018-05-14T08:11:05.078Z,1.00
2018-05-14T08:13:37.592Z,1.00
2018-05-14T08:16:08.467Z,1.00
2018-05-14T08:18:39.106Z,1.00
2018-05-14T08:21:10.562Z,1.00
2018-05-14T08:23:42.853Z,1.00
2018-05-14T08:26:14.451Z,1.00
2018-05-14T08:28:45.557Z,1.00
2018-05-14T08:31:16.319Z,1.00
2018-05-14T08:33:47.492Z,1.00
2018-05-14T08:36:18.193Z,1.00
2018-05-14T08:38:48.044Z,1.00
2018-05-14T08:41:21.432Z,1.00
2018-05-14T08:43:52.525Z,1.00
2018-05-14T08:46:23.973Z,1.00
2018-05-14T08:48:54.128Z,1.00
2018-05-14T08:51:24.008Z,1.00
2018-05-14T08:53:55.292Z,1.00
2018-05-14T08:56:26.576Z,1.00
2018-05-14T08:58:56.959Z,1.00
2018-05-14T09:01:29.389Z,1.00
2018-05-14T09:03:59.808Z,1.00
2018-05-14T09:06:32.609Z,1.00
2018-05-14T09:09:03.193Z,1.00
2018-05-14T09:11:34.601Z,1.00
2018-05-14T09:14:06.121Z,1.00
2018-05-14T09:16:38.701Z,1.00
2018-05-14T09:19:09.734Z,1.00
2018-05-14T09:21:39.802Z,1.00
2018-05-14T09:24:10.312Z,1.00
2018-05-14T09:26:40.594Z,1.00
2018-05-14T09:29:13.640Z,1.00
2018-05-14T09:31:44.413Z,1.00
2018-05-14T09:34:15.810Z,1.00
2018-05-14T09:36:45.774Z,1.00
2018-05-14T09:39:17.731Z,1.00
2018-05-14T09:41:49.087Z,1.00
2018-05-14T09:44:19.793Z,1.00
2018-05-14T09:46:49.818Z,1.00
2018-05-14T09:49:21.469Z,1.00
2018-05-14T09:51:52.389Z,1.00
2018-05-14T09:54:25.606Z,1.00
2018-05-14T09:56:55.515Z,1.00
2018-05-14T09:59:25.523Z,1.00
2018-05-14T10:01:55.530Z,1.00
2018-05-14T10:04:26.691Z,1.00
2018-05-14T10:06:56.573Z,1.00
2018-05-14T10:09:26.606Z,1.00
2018-05-14T10:11:59.593Z,1.00
2018-05-14T10:14:31.783Z,1.00
2018-05-14T10:17:03.565Z,1.00
2018-05-14T10:19:34.679Z,1.00
2018-05-14T10:22:05.769Z,1.00
2018-05-14T10:24:35.569Z,1.00
2018-05-14T10:27:06.863Z,1.00
2018-05-14T10:29:38.017Z,1.00
2018-05-14T10:32:10.344Z,1.00
2018-05-14T10:34:40.461Z,99.90
2018-05-14T10:37:11.499Z,99.90
2018-05-14T10:39:41.384Z,1.00
2018-05-14T10:42:15.325Z,99.90
2018-05-14T10:44:45.246Z,99.90
2018-05-14T10:47:16.131Z,1.00
2018-05-14T10:49:49.061Z,1.00
2018-05-14T10:52:19.813Z,1.00
2018-05-14T10:54:50.357Z,99.90
2018-05-14T10:57:20.440Z,1.00
2018-05-14T10:59:51.005Z,99.90
2018-05-14T11:02:20.913Z,39.40
2018-05-14T11:04:52.327Z,99.90
2018-05-14T11:07:22.250Z,1.00
2018-05-14T11:09:52.237Z,1.00
2018-05-14T11:12:23.064Z,1.00
2018-05-14T11:14:53.722Z,1.00
2018-05-14T11:17:24.794Z,1.00
2018-05-14T11:19:56.086Z,99.90
2018-05-14T11:22:26.543Z,99.90
2018-05-14T11:24:58.586Z,99.90
2018-05-14T11:27:30.182Z,1.00
2018-05-14T11:30:00.471Z,1.00
2018-05-14T11:32:31.986Z,99.90
2018-05-14T11:35:02.650Z,99.90
2018-05-14T11:37:36.896Z,99.90
2018-05-14T11:40:09.654Z,99.90
2018-05-14T11:42:40.599Z,1.00
2018-05-14T11:45:13.906Z,1.00
2018-05-14T11:47:44.523Z,1.00
2018-05-14T11:50:15.763Z,1.00
2018-05-14T11:52:50.953Z,1.00
2018-05-14T11:55:20.869Z,1.00
2018-05-14T11:57:53.391Z,99.90
2018-05-14T12:00:26.391Z,99.90
2018-05-14T12:02:57.087Z,99.90
2018-05-14T12:05:27.973Z,99.90
2018-05-14T12:07:59.196Z,99.90
2018-05-14T12:10:31.061Z,99.90
2018-05-14T12:13:01.759Z,99.90
2018-05-14T12:15:31.555Z,99.90
2018-05-14T12:18:03.795Z,99.90
2018-05-14T12:20:35.939Z,99.90
2018-05-14T12:23:08.914Z,99.90
2018-05-14T12:25:39.881Z,99.90
2018-05-14T12:28:11.935Z,99.90
2018-05-14T12:30:43.222Z,99.90
2018-05-14T12:33:14.429Z,99.90
2018-05-14T12:35:45.221Z,31.90
2018-05-14T12:38:17.183Z,1.00
2018-05-14T12:40:51.904Z,1.00
2018-05-14T12:43:23.285Z,1.00
2018-05-14T12:45:54.279Z,1.00
2018-05-14T12:48:26.362Z,1.00
2018-05-14T12:50:56.226Z,1.00
2018-05-14T12:53:27.098Z,1.00
2018-05-14T12:55:59.550Z,1.00
2018-05-14T12:58:32.036Z,99.90
2018-05-14T13:01:04.371Z,99.90
2018-05-14T13:03:37.989Z,99.90
2018-05-14T13:06:08.491Z,99.90
2018-05-14T13:08:41.647Z,1.00
2018-05-14T13:11:12.057Z,1.00
2018-05-14T13:13:44.228Z,1.00
2018-05-14T13:16:14.220Z,1.00
2018-05-14T13:18:44.525Z,1.00
2018-05-14T13:21:15.156Z,1.00
2018-05-14T13:23:46.043Z,1.00
2018-05-14T13:26:16.725Z,1.00
2018-05-14T13:28:47.013Z,1.00
2018-05-14T13:31:18.439Z,1.00
2018-05-14T13:33:48.658Z,1.00
2018-05-14T13:36:20.750Z,1.00
2018-05-14T13:38:50.623Z,1.00
2018-05-14T13:41:20.745Z,1.00
2018-05-14T13:43:50.863Z,1.00
2018-05-14T13:46:21.888Z,1.00
2018-05-14T13:48:53.628Z,1.00
2018-05-14T13:51:23.424Z,1.00
2018-05-14T13:53:55.841Z,1.00
2018-05-14T13:56:28.745Z,1.00
2018-05-14T13:58:59.773Z,1.00
2018-05-14T14:01:30.409Z,1.00
2018-05-14T14:04:01.626Z,1.00
2018-05-14T14:06:31.636Z,1.00
2018-05-14T14:09:04.763Z,1.00
2018-05-14T14:11:35.101Z,1.00
2018-05-14T14:14:09.695Z,1.00
2018-05-14T14:16:41.571Z,1.00
2018-05-14T14:19:13.495Z,1.00
2018-05-14T14:21:45.945Z,1.00
2018-05-14T14:24:19.166Z,1.00
2018-05-14T14:26:49.346Z,1.00
2018-05-14T14:29:22.068Z,1.00
2018-05-14T14:31:54.182Z,1.00
2018-05-14T14:34:25.811Z,1.00
2018-05-14T14:36:57.268Z,1.00
2018-05-14T14:39:28.631Z,1.00
2018-05-14T14:41:59.230Z,1.00
2018-05-14T14:44:31.754Z,1.00
2018-05-14T14:47:02.040Z,1.00
2018-05-14T14:49:33.236Z,1.00
2018-05-14T14:52:03.253Z,1.00
2018-05-14T14:54:33.405Z,1.00
2018-05-14T14:57:04.100Z,1.00
2018-05-14T14:59:33.765Z,1.00
2018-05-14T15:02:05.925Z,1.00
2018-05-14T15:04:37.110Z,1.00
2018-05-14T15:07:10.708Z,1.00
2018-05-14T15:09:41.178Z,1.00
2018-05-14T15:12:12.183Z,1.00
2018-05-14T15:14:42.377Z,1.00
2018-05-14T15:17:13.218Z,1.00
2018-05-14T15:19:45.575Z,1.00
2018-05-14T15:22:15.748Z,1.00
2018-05-14T15:24:47.529Z,1.00
2018-05-14T15:27:18.679Z,1.00
2018-05-14T15:29:48.623Z,1.00
2018-05-14T15:32:18.908Z,1.00
2018-05-14T15:34:49.780Z,1.00
2018-05-14T15:37:19.243Z,1.00
2018-05-14T15:39:49.975Z,1.00
2018-05-14T15:42:21.067Z,1.00
2018-05-14T15:44:54.192Z,1.00
2018-05-14T15:47:24.943Z,1.00
2018-05-14T15:49:56.109Z,1.00
2018-05-14T15:52:25.964Z,1.00
2018-05-14T15:54:56.138Z,1.00
2018-05-14T15:57:26.753Z,1.00
2018-05-14T15:59:58.611Z,1.00
2018-05-14T16:02:31.364Z,1.00
2018-05-14T16:05:03.797Z,1.00
2018-05-14T16:07:35.895Z,1.00
2018-05-14T16:10:07.653Z,1.00
2018-05-14T16:12:38.898Z,1.00
2018-05-14T16:15:09.025Z,1.00
2018-05-14T16:17:41.447Z,1.00
2018-05-14T16:20:11.205Z,1.00
2018-05-14T16:22:43.375Z,1.00
2018-05-14T16:25:14.574Z,1.00
2018-05-14T16:27:45.611Z,1.00
2018-05-14T16:30:15.738Z,1.00
2018-05-14T16:32:48.014Z,1.00
2018-05-14T16:35:18.471Z,1.00
2018-05-14T16:37:49.670Z,1.00
2018-05-14T16:40:23.664Z,1.00
2018-05-14T16:42:56.929Z,1.00
2018-05-14T16:45:28.135Z,1.00
2018-05-14T16:48:00.433Z,1.00
2018-05-14T16:50:30.523Z,1.00
2018-05-14T16:53:00.428Z,1.00
2018-05-14T16:55:31.649Z,1.00
2018-05-14T16:58:02.908Z,1.00
2018-05-14T17:00:34.028Z,1.00
2018-05-14T17:03:06.190Z,1.00
2018-05-14T17:05:36.271Z,1.00
2018-05-14T17:08:07.597Z,1.00
2018-05-14T17:10:37.744Z,1.00
2018-05-14T17:13:07.479Z,1.00
2018-05-14T17:15:40.192Z,1.00
2018-05-14T17:18:10.407Z,1.00
2018-05-14T17:20:41.081Z,1.00
2018-05-14T17:23:13.867Z,1.00
2018-05-14T17:25:44.386Z,1.00
2018-05-14T17:28:14.357Z,1.00
2018-05-14T17:30:44.929Z,1.00
2018-05-14T17:33:17.505Z,1.00
2018-05-14T17:35:48.075Z,1.00
2018-05-14T17:38:19.379Z,1.00
2018-05-14T17:40:49.118Z,1.00
2018-05-14T17:43:21.215Z,1.00
2018-05-14T17:45:52.293Z,1.00
2018-05-14T17:48:24.291Z,1.00
2018-05-14T17:50:56.157Z,1.00
2018-05-14T17:53:26.006Z,1.00
2018-05-14T17:55:55.770Z,1.00
2018-05-14T17:58:25.780Z,1.00
2018-05-14T18:00:57.029Z,1.00
2018-05-14T18:03:27.992Z,1.00
2018-05-14T18:06:01.794Z,1.00
2018-05-14T18:08:33.089Z,1.00
2018-05-14T18:11:03.459Z,1.00
2018-05-14T18:13:34.612Z,1.00
2018-05-14T18:16:07.481Z,1.00
2018-05-14T18:18:39.445Z,1.00
2018-05-14T18:21:11.721Z,1.00
2018-05-14T18:23:47.527Z,1.00
2018-05-14T18:26:19.752Z,1.00
2018-05-14T18:28:50.223Z,1.00
2018-05-14T18:31:25.471Z,1.00
2018-05-14T18:34:14.888Z,1.00
2018-05-14T18:36:45.638Z,1.00
2018-05-14T18:39:17.871Z,1.00
2018-05-14T18:41:47.830Z,1.00
2018-05-14T18:44:19.793Z,1.00
2018-05-14T18:46:50.493Z,1.00
2018-05-14T18:49:21.415Z,1.00
2018-05-14T18:51:52.782Z,1.00
2018-05-14T18:54:23.651Z,49.50
2018-05-14T18:56:55.495Z,99.90
2018-05-14T18:59:28.175Z,99.90
2018-05-14T19:02:04.395Z,99.90
2018-05-14T19:04:35.016Z,99.90
2018-05-14T19:07:07.531Z,99.90
2018-05-14T19:09:38.472Z,1.00
2018-05-14T19:12:10.669Z,1.00
2018-05-14T19:14:40.393Z,1.00
2018-05-14T19:17:17.450Z,1.00
2018-05-14T19:19:49.776Z,99.90
2018-05-14T19:22:25.213Z,99.90
2018-05-14T19:24:56.205Z,99.90
2018-05-14T19:27:27.042Z,1.00
2018-05-14T19:29:58.905Z,1.00
2018-05-14T19:32:31.723Z,59.90
2018-05-14T19:35:07.013Z,59.20
2018-05-14T19:37:37.850Z,99.90
2018-05-14T19:40:13.648Z,99.90
2018-05-14T19:42:44.528Z,99.90
2018-05-14T19:45:16.777Z,99.90
2018-05-14T19:47:48.770Z,99.90
2018-05-14T19:50:19.427Z,1.00
2018-05-14T19:52:49.493Z,1.00
2018-05-14T19:55:21.890Z,72.60
2018-05-14T19:57:53.670Z,99.90
2018-05-14T20:00:24.545Z,99.90
2018-05-14T20:02:54.310Z,99.90
2018-05-14T20:05:25.360Z,99.90
2018-05-14T20:07:55.901Z,99.90
2018-05-14T20:10:28.338Z,99.90
2018-05-14T20:12:58.089Z,99.90
2018-05-14T20:15:28.861Z,99.90
2018-05-14T20:17:58.801Z,1.00
2018-05-14T20:20:31.201Z,1.00
2018-05-14T20:23:01.141Z,1.00
2018-05-14T20:25:33.511Z,1.00
2018-05-14T20:28:05.332Z,28.00
2018-05-14T20:30:36.190Z,99.90
2018-05-14T20:33:08.273Z,99.90
2018-05-14T20:35:38.573Z,99.90
2018-05-14T20:38:10.685Z,99.90
2018-05-14T20:40:40.705Z,1.00
2018-05-14T20:43:12.763Z,1.00
2018-05-14T20:45:45.016Z,1.00
2018-05-14T20:48:14.939Z,1.00
2018-05-14T20:50:45.529Z,73.90
2018-05-14T20:53:16.139Z,99.90
2018-05-14T20:55:49.178Z,1.00
2018-05-14T20:58:18.960Z,1.00
2018-05-14T21:00:50.740Z,1.00
2018-05-14T21:03:20.381Z,1.00
2018-05-14T21:05:50.309Z,1.00
2018-05-14T21:08:23.201Z,1.00
2018-05-14T21:10:53.411Z,1.00
2018-05-14T21:13:25.335Z,1.00
2018-05-14T21:15:55.888Z,3.50
2018-05-14T21:18:26.936Z,99.90
2018-05-14T21:20:57.917Z,99.90
2018-05-14T21:23:28.670Z,3.50
2018-05-14T21:26:00.991Z,3.50
2018-05-14T21:28:32.163Z,22.50
2018-05-14T21:31:03.515Z,99.90
2018-05-14T21:33:33.173Z,99.90
2018-05-14T21:36:05.566Z,56.70
2018-05-14T21:38:36.056Z,38.00
2018-05-14T21:41:08.278Z,99.90
2018-05-14T21:43:40.005Z,99.90
2018-05-14T21:46:09.877Z,99.90
2018-05-14T21:48:39.516Z,99.90
2018-05-14T21:51:11.567Z,1.00
2018-05-14T21:53:41.356Z,99.90
2018-05-14T21:56:11.089Z,99.90
2018-05-14T21:58:40.796Z,99.90
2018-05-14T22:01:10.553Z,99.90
2018-05-14T22:03:41.456Z,1.00
2018-05-14T22:06:15.382Z,1.00
2018-05-14T22:08:45.238Z,1.00
2018-05-14T22:11:17.462Z,1.00
2018-05-14T22:13:47.144Z,17.10
2018-05-14T22:16:19.312Z,99.90
2018-05-14T22:18:49.342Z,99.90
2018-05-14T22:21:21.616Z,99.90
2018-05-14T22:23:53.680Z,99.90
2018-05-14T22:26:24.345Z,99.90
2018-05-14T22:28:56.069Z,99.90
2018-05-14T22:31:28.161Z,99.90
2018-05-14T22:33:58.959Z,1.00
2018-05-14T22:36:28.795Z,1.00
2018-05-14T22:38:58.752Z,1.00
2018-05-14T22:41:30.443Z,1.00
2018-05-14T22:44:00.260Z,1.00
2018-05-14T22:46:32.497Z,1.00
2018-05-14T22:49:03.243Z,1.00
2018-05-14T22:51:34.037Z,1.00
2018-05-14T22:54:04.328Z,1.00
2018-05-14T22:56:36.397Z,1.00
2018-05-14T22:59:06.807Z,48.10
2018-05-14T23:01:36.642Z,99.90
2018-05-14T23:04:06.197Z,99.90
2018-05-14T23:06:36.986Z,99.90
2018-05-14T23:09:09.160Z,99.90
2018-05-14T23:11:38.909Z,99.90
2018-05-14T23:14:10.785Z,99.90
2018-05-14T23:16:41.637Z,99.90
2018-05-14T23:19:13.174Z,99.90
2018-05-14T23:21:46.113Z,99.90
2018-05-14T23:24:16.649Z,99.90
2018-05-14T23:26:46.517Z,99.90
2018-05-14T23:29:17.519Z,99.90
2018-05-14T23:31:49.339Z,1.00
2018-05-14T23:34:20.947Z,1.00
2018-05-14T23:36:52.668Z,1.00
2018-05-14T23:39:22.269Z,1.00
2018-05-14T23:41:53.008Z,1.00
2018-05-14T23:44:22.887Z,1.00
2018-05-14T23:46:52.565Z,1.00
2018-05-14T23:49:22.313Z,1.00
2018-05-14T23:51:53.775Z,1.00
2018-05-14T23:54:25.773Z,1.00
2018-05-14T23:56:56.466Z,1.00
2018-05-14T23:59:26.115Z,1.00
